sensor_id;sensor_type;location;lat;lon;timestamp;temperature;humidity
72940;DHT22;61094;51.154;13.570;2022-07-17T00:02:14;12.70;44.60
72940;DHT22;61094;51.154;13.570;2022-07-17T00:04:41;12.60;45.80
72940;DHT22;61094;51.154;13.570;2022-07-17T00:07:10;12.60;44.80
72940;DHT22;61094;51.154;13.570;2022-07-17T00:09:38;12.50;46.30
72940;DHT22;61094;51.154;13.570;2022-07-17T00:12:05;12.50;45.40
72940;DHT22;61094;51.154;13.570;2022-07-17T00:14:31;12.50;48.60
72940;DHT22;61094;51.154;13.570;2022-07-17T00:16:58;12.40;45.50
72940;DHT22;61094;51.154;13.570;2022-07-17T00:19:25;12.40;46.60
72940;DHT22;61094;51.154;13.570;2022-07-17T00:21:52;12.30;44.40
72940;DHT22;61094;51.154;13.570;2022-07-17T00:24:18;12.30;46.50
72940;DHT22;61094;51.154;13.570;2022-07-17T00:26:48;12.30;45.80
72940;DHT22;61094;51.154;13.570;2022-07-17T00:29:15;12.20;46.40
72940;DHT22;61094;51.154;13.570;2022-07-17T00:31:42;12.20;45.60
72940;DHT22;61094;51.154;13.570;2022-07-17T00:34:09;12.10;45.50
72940;DHT22;61094;51.154;13.570;2022-07-17T00:36:36;12.10;45.30
72940;DHT22;61094;51.154;13.570;2022-07-17T00:39:03;12.00;45.00
72940;DHT22;61094;51.154;13.570;2022-07-17T00:41:29;12.00;44.60
72940;DHT22;61094;51.154;13.570;2022-07-17T00:44:04;12.00;47.50
72940;DHT22;61094;51.154;13.570;2022-07-17T00:46:31;11.90;47.70
72940;DHT22;61094;51.154;13.570;2022-07-17T00:48:58;11.90;47.80
72940;DHT22;61094;51.154;13.570;2022-07-17T00:51:25;11.80;46.40
72940;DHT22;61094;51.154;13.570;2022-07-17T00:53:52;11.80;46.00
72940;DHT22;61094;51.154;13.570;2022-07-17T00:56:20;11.80;49.10
72940;DHT22;61094;51.154;13.570;2022-07-17T00:58:48;11.70;46.50
72940;DHT22;61094;51.154;13.570;2022-07-17T01:01:17;11.70;47.90
72940;DHT22;61094;51.154;13.570;2022-07-17T01:03:43;11.60;46.10
72940;DHT22;61094;51.154;13.570;2022-07-17T01:06:10;11.60;48.10
72940;DHT22;61094;51.154;13.570;2022-07-17T01:08:37;11.50;49.40
72940;DHT22;61094;51.154;13.570;2022-07-17T01:11:05;11.50;48.40
72940;DHT22;61094;51.154;13.570;2022-07-17T01:13:34;11.40;47.30
72940;DHT22;61094;51.154;13.570;2022-07-17T01:16:00;11.40;47.70
72940;DHT22;61094;51.154;13.570;2022-07-17T01:18:28;11.30;49.70
72940;DHT22;61094;51.154;13.570;2022-07-17T01:20:55;11.20;48.80
72940;DHT22;61094;51.154;13.570;2022-07-17T01:23:23;11.20;50.80
72940;DHT22;61094;51.154;13.570;2022-07-17T01:25:50;11.10;51.80
72940;DHT22;61094;51.154;13.570;2022-07-17T01:28:16;11.10;49.40
72940;DHT22;61094;51.154;13.570;2022-07-17T01:30:48;11.00;49.00
72940;DHT22;61094;51.154;13.570;2022-07-17T01:33:15;11.00;47.70
72940;DHT22;61094;51.154;13.570;2022-07-17T01:35:42;10.90;47.30
72940;DHT22;61094;51.154;13.570;2022-07-17T01:38:09;10.90;48.20
72940;DHT22;61094;51.154;13.570;2022-07-17T01:40:37;10.90;47.20
72940;DHT22;61094;51.154;13.570;2022-07-17T01:43:03;10.80;47.90
72940;DHT22;61094;51.154;13.570;2022-07-17T01:45:30;10.90;50.60
72940;DHT22;61094;51.154;13.570;2022-07-17T01:47:56;10.90;48.90
72940;DHT22;61094;51.154;13.570;2022-07-17T01:50:23;10.90;48.30
72940;DHT22;61094;51.154;13.570;2022-07-17T01:52:50;10.90;49.40
72940;DHT22;61094;51.154;13.570;2022-07-17T01:55:16;10.80;51.10
72940;DHT22;61094;51.154;13.570;2022-07-17T01:57:45;10.80;49.80
72940;DHT22;61094;51.154;13.570;2022-07-17T02:00:14;10.80;49.20
72940;DHT22;61094;51.154;13.570;2022-07-17T02:02:42;10.70;48.10
72940;DHT22;61094;51.154;13.570;2022-07-17T02:05:08;10.70;48.00
72940;DHT22;61094;51.154;13.570;2022-07-17T02:07:35;10.70;48.30
72940;DHT22;61094;51.154;13.570;2022-07-17T02:10:06;10.70;49.70
72940;DHT22;61094;51.154;13.570;2022-07-17T02:12:33;10.60;50.40
72940;DHT22;61094;51.154;13.570;2022-07-17T02:15:01;10.60;49.20
72940;DHT22;61094;51.154;13.570;2022-07-17T02:17:28;10.60;51.60
72940;DHT22;61094;51.154;13.570;2022-07-17T02:19:54;10.50;51.00
72940;DHT22;61094;51.154;13.570;2022-07-17T02:22:21;10.50;51.40
72940;DHT22;61094;51.154;13.570;2022-07-17T02:24:47;10.50;51.10
72940;DHT22;61094;51.154;13.570;2022-07-17T02:27:14;10.40;53.00
72940;DHT22;61094;51.154;13.570;2022-07-17T02:29:41;10.40;51.20
72940;DHT22;61094;51.154;13.570;2022-07-17T02:32:08;10.30;51.60
72940;DHT22;61094;51.154;13.570;2022-07-17T02:34:35;10.30;50.60
72940;DHT22;61094;51.154;13.570;2022-07-17T02:37:02;10.20;53.00
72940;DHT22;61094;51.154;13.570;2022-07-17T02:39:28;10.20;53.70
72940;DHT22;61094;51.154;13.570;2022-07-17T02:41:55;10.10;52.10
72940;DHT22;61094;51.154;13.570;2022-07-17T02:44:21;10.10;49.90
72940;DHT22;61094;51.154;13.570;2022-07-17T02:46:48;10.00;50.10
72940;DHT22;61094;51.154;13.570;2022-07-17T02:49:16;10.00;50.90
72940;DHT22;61094;51.154;13.570;2022-07-17T02:51:42;10.00;53.60
72940;DHT22;61094;51.154;13.570;2022-07-17T02:54:09;9.90;49.70
72940;DHT22;61094;51.154;13.570;2022-07-17T02:56:36;9.90;50.60
72940;DHT22;61094;51.154;13.570;2022-07-17T02:59:02;9.90;52.60
72940;DHT22;61094;51.154;13.570;2022-07-17T03:01:29;9.90;55.40
72940;DHT22;61094;51.154;13.570;2022-07-17T03:03:55;9.80;52.20
72940;DHT22;61094;51.154;13.570;2022-07-17T03:06:23;9.80;52.60
72940;DHT22;61094;51.154;13.570;2022-07-17T03:08:50;9.70;52.40
72940;DHT22;61094;51.154;13.570;2022-07-17T03:11:16;9.70;51.00
72940;DHT22;61094;51.154;13.570;2022-07-17T03:13:43;9.60;50.90
72940;DHT22;61094;51.154;13.570;2022-07-17T03:16:09;9.60;55.00
72940;DHT22;61094;51.154;13.570;2022-07-17T03:18:36;9.60;52.50
72940;DHT22;61094;51.154;13.570;2022-07-17T03:21:03;9.60;54.70
72940;DHT22;61094;51.154;13.570;2022-07-17T03:23:31;9.60;55.90
72940;DHT22;61094;51.154;13.570;2022-07-17T03:25:57;9.60;55.90
72940;DHT22;61094;51.154;13.570;2022-07-17T03:28:24;9.50;53.40
72940;DHT22;61094;51.154;13.570;2022-07-17T03:30:50;9.50;50.90
72940;DHT22;61094;51.154;13.570;2022-07-17T03:33:17;9.50;51.90
72940;DHT22;61094;51.154;13.570;2022-07-17T03:35:44;9.50;51.10
72940;DHT22;61094;51.154;13.570;2022-07-17T03:38:10;9.50;52.80
72940;DHT22;61094;51.154;13.570;2022-07-17T03:40:38;9.50;52.20
72940;DHT22;61094;51.154;13.570;2022-07-17T03:43:05;9.40;53.10
72940;DHT22;61094;51.154;13.570;2022-07-17T03:45:31;9.40;53.00
72940;DHT22;61094;51.154;13.570;2022-07-17T03:47:58;9.40;60.80
72940;DHT22;61094;51.154;13.570;2022-07-17T03:50:24;9.30;57.00
72940;DHT22;61094;51.154;13.570;2022-07-17T03:52:51;9.30;56.20
72940;DHT22;61094;51.154;13.570;2022-07-17T03:55:18;9.30;55.40
72940;DHT22;61094;51.154;13.570;2022-07-17T03:57:45;9.30;51.70
72940;DHT22;61094;51.154;13.570;2022-07-17T04:00:12;9.30;53.30
72940;DHT22;61094;51.154;13.570;2022-07-17T04:02:40;9.40;51.60
72940;DHT22;61094;51.154;13.570;2022-07-17T04:05:07;9.40;51.30
72940;DHT22;61094;51.154;13.570;2022-07-17T04:07:35;9.40;53.60
72940;DHT22;61094;51.154;13.570;2022-07-17T04:10:03;9.40;51.10
72940;DHT22;61094;51.154;13.570;2022-07-17T04:12:30;9.50;52.80
72940;DHT22;61094;51.154;13.570;2022-07-17T04:14:58;9.50;51.80
72940;DHT22;61094;51.154;13.570;2022-07-17T04:17:25;9.50;51.60
72940;DHT22;61094;51.154;13.570;2022-07-17T04:19:52;9.50;52.70
72940;DHT22;61094;51.154;13.570;2022-07-17T04:22:18;9.60;50.90
72940;DHT22;61094;51.154;13.570;2022-07-17T04:24:45;9.70;51.60
72940;DHT22;61094;51.154;13.570;2022-07-17T04:27:12;9.70;54.20
72940;DHT22;61094;51.154;13.570;2022-07-17T04:29:39;9.90;52.10
72940;DHT22;61094;51.154;13.570;2022-07-17T04:32:07;9.90;51.10
72940;DHT22;61094;51.154;13.570;2022-07-17T04:34:34;10.10;51.80
72940;DHT22;61094;51.154;13.570;2022-07-17T04:37:02;10.20;51.30
72940;DHT22;61094;51.154;13.570;2022-07-17T04:39:29;10.30;50.20
72940;DHT22;61094;51.154;13.570;2022-07-17T04:41:56;10.40;51.10
72940;DHT22;61094;51.154;13.570;2022-07-17T04:44:23;10.50;49.90
72940;DHT22;61094;51.154;13.570;2022-07-17T04:46:49;10.50;51.00
72940;DHT22;61094;51.154;13.570;2022-07-17T04:49:17;10.60;49.60
72940;DHT22;61094;51.154;13.570;2022-07-17T04:51:44;10.60;49.40
72940;DHT22;61094;51.154;13.570;2022-07-17T04:54:11;10.70;50.00
72940;DHT22;61094;51.154;13.570;2022-07-17T04:56:37;10.70;50.50
72940;DHT22;61094;51.154;13.570;2022-07-17T04:59:04;10.80;50.10
72940;DHT22;61094;51.154;13.570;2022-07-17T05:01:31;10.80;50.30
72940;DHT22;61094;51.154;13.570;2022-07-17T05:03:58;10.90;50.00
72940;DHT22;61094;51.154;13.570;2022-07-17T05:06:26;11.00;49.60
72940;DHT22;61094;51.154;13.570;2022-07-17T05:08:52;11.10;49.20
72940;DHT22;61094;51.154;13.570;2022-07-17T05:11:19;11.20;48.70
72940;DHT22;61094;51.154;13.570;2022-07-17T05:13:46;11.20;49.10
72940;DHT22;61094;51.154;13.570;2022-07-17T05:16:12;11.30;48.80
72940;DHT22;61094;51.154;13.570;2022-07-17T05:18:39;11.30;48.60
72940;DHT22;61094;51.154;13.570;2022-07-17T05:21:06;11.40;48.40
72940;DHT22;61094;51.154;13.570;2022-07-17T05:23:34;11.40;49.10
72940;DHT22;61094;51.154;13.570;2022-07-17T05:26:00;11.50;48.80
72940;DHT22;61094;51.154;13.570;2022-07-17T05:28:27;11.60;49.00
72940;DHT22;61094;51.154;13.570;2022-07-17T05:30:53;11.70;49.30
72940;DHT22;61094;51.154;13.570;2022-07-17T05:33:20;11.80;48.50
72940;DHT22;61094;51.154;13.570;2022-07-17T05:35:47;11.90;48.20
72940;DHT22;61094;51.154;13.570;2022-07-17T05:38:13;12.00;48.20
72940;DHT22;61094;51.154;13.570;2022-07-17T05:40:41;12.10;48.10
72940;DHT22;61094;51.154;13.570;2022-07-17T05:43:08;12.20;48.20
72940;DHT22;61094;51.154;13.570;2022-07-17T05:45:35;12.20;48.00
72940;DHT22;61094;51.154;13.570;2022-07-17T05:48:02;12.30;48.00
72940;DHT22;61094;51.154;13.570;2022-07-17T05:50:28;12.40;49.80
72940;DHT22;61094;51.154;13.570;2022-07-17T05:52:55;12.50;49.20
72940;DHT22;61094;51.154;13.570;2022-07-17T05:55:22;12.60;52.60
72940;DHT22;61094;51.154;13.570;2022-07-17T05:57:50;12.70;48.60
72940;DHT22;61094;51.154;13.570;2022-07-17T06:00:16;12.90;49.80
72940;DHT22;61094;51.154;13.570;2022-07-17T06:02:43;13.00;48.50
72940;DHT22;61094;51.154;13.570;2022-07-17T06:05:10;13.10;49.50
72940;DHT22;61094;51.154;13.570;2022-07-17T06:07:38;13.20;48.20
72940;DHT22;61094;51.154;13.570;2022-07-17T06:10:05;13.30;48.30
72940;DHT22;61094;51.154;13.570;2022-07-17T06:12:32;13.40;50.90
72940;DHT22;61094;51.154;13.570;2022-07-17T06:15:00;13.50;48.50
72940;DHT22;61094;51.154;13.570;2022-07-17T06:17:27;13.50;48.10
72940;DHT22;61094;51.154;13.570;2022-07-17T06:19:54;13.60;47.50
72940;DHT22;61094;51.154;13.570;2022-07-17T06:22:21;13.70;55.60
72940;DHT22;61094;51.154;13.570;2022-07-17T06:24:47;13.90;50.80
72940;DHT22;61094;51.154;13.570;2022-07-17T06:27:14;14.00;51.90
72940;DHT22;61094;51.154;13.570;2022-07-17T06:29:41;14.10;51.30
72940;DHT22;61094;51.154;13.570;2022-07-17T06:32:09;14.20;52.50
72940;DHT22;61094;51.154;13.570;2022-07-17T06:34:36;14.40;49.40
72940;DHT22;61094;51.154;13.570;2022-07-17T06:37:02;14.40;49.50
72940;DHT22;61094;51.154;13.570;2022-07-17T06:39:30;14.60;47.80
72940;DHT22;61094;51.154;13.570;2022-07-17T06:41:57;14.70;47.50
72940;DHT22;61094;51.154;13.570;2022-07-17T06:44:23;14.80;49.40
72940;DHT22;61094;51.154;13.570;2022-07-17T06:46:50;14.90;47.20
72940;DHT22;61094;51.154;13.570;2022-07-17T06:49:18;15.10;48.10
72940;DHT22;61094;51.154;13.570;2022-07-17T06:51:45;15.20;51.30
72940;DHT22;61094;51.154;13.570;2022-07-17T06:54:14;15.30;47.20
72940;DHT22;61094;51.154;13.570;2022-07-17T06:56:41;15.40;46.80
72940;DHT22;61094;51.154;13.570;2022-07-17T06:59:08;15.60;46.70
72940;DHT22;61094;51.154;13.570;2022-07-17T07:01:36;15.70;47.60
72940;DHT22;61094;51.154;13.570;2022-07-17T07:04:03;15.90;49.40
72940;DHT22;61094;51.154;13.570;2022-07-17T07:06:31;16.00;46.80
72940;DHT22;61094;51.154;13.570;2022-07-17T07:08:58;16.20;46.90
72940;DHT22;61094;51.154;13.570;2022-07-17T07:11:25;16.40;47.60
72940;DHT22;61094;51.154;13.570;2022-07-17T07:13:52;16.50;47.40
72940;DHT22;61094;51.154;13.570;2022-07-17T07:16:18;16.70;46.30
72940;DHT22;61094;51.154;13.570;2022-07-17T07:18:45;16.80;45.90
72940;DHT22;61094;51.154;13.570;2022-07-17T07:21:12;16.90;46.80
72940;DHT22;61094;51.154;13.570;2022-07-17T07:23:40;17.10;46.10
72940;DHT22;61094;51.154;13.570;2022-07-17T07:26:07;17.30;45.70
72940;DHT22;61094;51.154;13.570;2022-07-17T07:28:33;17.60;45.50
72940;DHT22;61094;51.154;13.570;2022-07-17T07:31:00;18.00;45.20
72940;DHT22;61094;51.154;13.570;2022-07-17T07:33:27;18.40;45.10
72940;DHT22;61094;51.154;13.570;2022-07-17T07:35:53;18.80;44.40
72940;DHT22;61094;51.154;13.570;2022-07-17T07:38:21;19.10;44.10
72940;DHT22;61094;51.154;13.570;2022-07-17T07:40:49;19.50;43.60
72940;DHT22;61094;51.154;13.570;2022-07-17T07:43:15;19.90;42.40
72940;DHT22;61094;51.154;13.570;2022-07-17T07:45:42;20.10;42.80
72940;DHT22;61094;51.154;13.570;2022-07-17T07:48:09;20.30;42.00
72940;DHT22;61094;51.154;13.570;2022-07-17T07:50:35;20.60;41.20
72940;DHT22;61094;51.154;13.570;2022-07-17T07:53:02;20.70;41.20
72940;DHT22;61094;51.154;13.570;2022-07-17T07:55:29;20.80;42.60
72940;DHT22;61094;51.154;13.570;2022-07-17T07:58:03;20.90;42.20
72940;DHT22;61094;51.154;13.570;2022-07-17T08:00:30;20.80;41.30
72940;DHT22;61094;51.154;13.570;2022-07-17T08:02:57;20.60;41.70
72940;DHT22;61094;51.154;13.570;2022-07-17T08:05:24;20.50;43.80
72940;DHT22;61094;51.154;13.570;2022-07-17T08:07:51;20.40;43.70
72940;DHT22;61094;51.154;13.570;2022-07-17T08:10:18;20.20;43.90
72940;DHT22;61094;51.154;13.570;2022-07-17T08:12:44;20.10;42.00
72940;DHT22;61094;51.154;13.570;2022-07-17T08:15:13;20.10;44.30
72940;DHT22;61094;51.154;13.570;2022-07-17T08:17:40;20.10;41.80
72940;DHT22;61094;51.154;13.570;2022-07-17T08:20:08;20.20;42.90
72940;DHT22;61094;51.154;13.570;2022-07-17T08:22:34;20.40;44.30
72940;DHT22;61094;51.154;13.570;2022-07-17T08:25:01;20.50;42.70
72940;DHT22;61094;51.154;13.570;2022-07-17T08:27:28;20.70;43.70
72940;DHT22;61094;51.154;13.570;2022-07-17T08:29:54;20.70;43.10
72940;DHT22;61094;51.154;13.570;2022-07-17T08:32:22;20.80;43.10
72940;DHT22;61094;51.154;13.570;2022-07-17T08:34:49;21.00;43.50
72940;DHT22;61094;51.154;13.570;2022-07-17T08:37:15;21.10;40.20
72940;DHT22;61094;51.154;13.570;2022-07-17T08:39:42;21.20;42.10
72940;DHT22;61094;51.154;13.570;2022-07-17T08:42:09;21.30;41.00
72940;DHT22;61094;51.154;13.570;2022-07-17T08:44:41;21.40;39.20
72940;DHT22;61094;51.154;13.570;2022-07-17T08:47:08;21.60;43.00
72940;DHT22;61094;51.154;13.570;2022-07-17T08:49:40;21.60;42.30
72940;DHT22;61094;51.154;13.570;2022-07-17T08:52:07;21.70;41.00
72940;DHT22;61094;51.154;13.570;2022-07-17T08:54:34;21.80;41.80
72940;DHT22;61094;51.154;13.570;2022-07-17T08:57:02;21.80;41.60
72940;DHT22;61094;51.154;13.570;2022-07-17T08:59:28;21.90;42.00
72940;DHT22;61094;51.154;13.570;2022-07-17T09:01:55;21.90;40.00
72940;DHT22;61094;51.154;13.570;2022-07-17T09:04:22;21.80;41.40
72940;DHT22;61094;51.154;13.570;2022-07-17T09:06:59;21.80;41.60
72940;DHT22;61094;51.154;13.570;2022-07-17T09:09:26;21.70;41.00
72940;DHT22;61094;51.154;13.570;2022-07-17T09:11:54;21.70;41.50
72940;DHT22;61094;51.154;13.570;2022-07-17T09:14:21;21.80;39.90
72940;DHT22;61094;51.154;13.570;2022-07-17T09:16:50;22.00;38.80
72940;DHT22;61094;51.154;13.570;2022-07-17T09:19:27;22.10;40.10
72940;DHT22;61094;51.154;13.570;2022-07-17T09:22:09;22.40;40.50
72940;DHT22;61094;51.154;13.570;2022-07-17T09:24:42;22.70;40.10
72940;DHT22;61094;51.154;13.570;2022-07-17T09:27:11;23.00;40.00
72940;DHT22;61094;51.154;13.570;2022-07-17T09:29:54;23.30;38.60
72940;DHT22;61094;51.154;13.570;2022-07-17T09:32:22;23.40;33.30
72940;DHT22;61094;51.154;13.570;2022-07-17T09:34:50;23.60;39.00
72940;DHT22;61094;51.154;13.570;2022-07-17T09:37:21;23.70;37.00
72940;DHT22;61094;51.154;13.570;2022-07-17T09:39:49;23.90;38.00
72940;DHT22;61094;51.154;13.570;2022-07-17T09:42:24;24.10;38.00
72940;DHT22;61094;51.154;13.570;2022-07-17T09:44:56;24.10;34.80
72940;DHT22;61094;51.154;13.570;2022-07-17T09:47:23;24.20;35.80
72940;DHT22;61094;51.154;13.570;2022-07-17T09:49:52;24.10;38.00
72940;DHT22;61094;51.154;13.570;2022-07-17T09:52:22;24.00;38.10
72940;DHT22;61094;51.154;13.570;2022-07-17T09:54:51;23.90;37.20
72940;DHT22;61094;51.154;13.570;2022-07-17T09:57:19;23.90;37.10
72940;DHT22;61094;51.154;13.570;2022-07-17T09:59:47;24.00;37.70
72940;DHT22;61094;51.154;13.570;2022-07-17T10:02:15;24.00;35.20
72940;DHT22;61094;51.154;13.570;2022-07-17T10:04:42;24.20;34.90
72940;DHT22;61094;51.154;13.570;2022-07-17T10:07:09;24.50;37.00
72940;DHT22;61094;51.154;13.570;2022-07-17T10:09:38;24.80;37.10
72940;DHT22;61094;51.154;13.570;2022-07-17T10:12:05;25.00;34.50
72940;DHT22;61094;51.154;13.570;2022-07-17T10:14:32;25.30;33.10
72940;DHT22;61094;51.154;13.570;2022-07-17T10:17:06;25.50;35.50
72940;DHT22;61094;51.154;13.570;2022-07-17T10:19:33;25.70;35.40
72940;DHT22;61094;51.154;13.570;2022-07-17T10:22:04;26.00;36.30
72940;DHT22;61094;51.154;13.570;2022-07-17T10:24:31;26.00;35.00
72940;DHT22;61094;51.154;13.570;2022-07-17T10:27:00;26.10;34.60
72940;DHT22;61094;51.154;13.570;2022-07-17T10:29:29;26.10;34.50
72940;DHT22;61094;51.154;13.570;2022-07-17T10:31:57;26.20;35.50
72940;DHT22;61094;51.154;13.570;2022-07-17T10:34:37;26.10;35.20
72940;DHT22;61094;51.154;13.570;2022-07-17T10:37:14;26.00;31.20
72940;DHT22;61094;51.154;13.570;2022-07-17T10:39:52;26.20;34.50
72940;DHT22;61094;51.154;13.570;2022-07-17T10:42:42;26.40;34.00
72940;DHT22;61094;51.154;13.570;2022-07-17T10:45:11;26.50;29.70
72940;DHT22;61094;51.154;13.570;2022-07-17T10:47:46;26.70;33.30
72940;DHT22;61094;51.154;13.570;2022-07-17T10:50:14;26.70;33.80
72940;DHT22;61094;51.154;13.570;2022-07-17T10:52:41;26.70;31.00
72940;DHT22;61094;51.154;13.570;2022-07-17T10:55:18;26.80;31.20
72940;DHT22;61094;51.154;13.570;2022-07-17T10:57:47;26.90;31.10
72940;DHT22;61094;51.154;13.570;2022-07-17T11:00:14;27.00;32.50
72940;DHT22;61094;51.154;13.570;2022-07-17T11:02:41;27.10;31.10
72940;DHT22;61094;51.154;13.570;2022-07-17T11:05:08;27.20;32.50
72940;DHT22;61094;51.154;13.570;2022-07-17T11:07:36;27.40;32.40
72940;DHT22;61094;51.154;13.570;2022-07-17T11:10:08;27.60;31.80
72940;DHT22;61094;51.154;13.570;2022-07-17T11:13:07;27.60;30.70
72940;DHT22;61094;51.154;13.570;2022-07-17T11:15:41;27.70;31.30
72940;DHT22;61094;51.154;13.570;2022-07-17T11:18:19;27.90;30.80
72940;DHT22;61094;51.154;13.570;2022-07-17T11:20:51;28.10;31.40
72940;DHT22;61094;51.154;13.570;2022-07-17T11:23:23;28.10;31.30
72940;DHT22;61094;51.154;13.570;2022-07-17T11:25:55;28.20;29.60
72940;DHT22;61094;51.154;13.570;2022-07-17T11:28:45;28.20;30.40
72940;DHT22;61094;51.154;13.570;2022-07-17T11:31:23;28.10;30.90
72940;DHT22;61094;51.154;13.570;2022-07-17T11:33:52;27.80;27.60
72940;DHT22;61094;51.154;13.570;2022-07-17T11:36:19;27.70;30.70
72940;DHT22;61094;51.154;13.570;2022-07-17T11:38:46;27.60;27.50
72940;DHT22;61094;51.154;13.570;2022-07-17T11:41:19;27.70;30.00
72940;DHT22;61094;51.154;13.570;2022-07-17T11:43:48;27.80;30.40
72940;DHT22;61094;51.154;13.570;2022-07-17T11:46:15;27.90;30.00
72940;DHT22;61094;51.154;13.570;2022-07-17T11:48:43;27.90;30.40
72940;DHT22;61094;51.154;13.570;2022-07-17T11:51:10;28.00;29.80
72940;DHT22;61094;51.154;13.570;2022-07-17T11:53:38;27.90;29.30
72940;DHT22;61094;51.154;13.570;2022-07-17T11:56:06;27.80;30.70
72940;DHT22;61094;51.154;13.570;2022-07-17T11:58:44;27.70;29.60
72940;DHT22;61094;51.154;13.570;2022-07-17T12:01:13;27.60;27.70
72940;DHT22;61094;51.154;13.570;2022-07-17T12:03:40;27.60;30.40
72940;DHT22;61094;51.154;13.570;2022-07-17T12:06:07;27.70;30.60
72940;DHT22;61094;51.154;13.570;2022-07-17T12:08:37;27.80;30.20
72940;DHT22;61094;51.154;13.570;2022-07-17T12:11:14;27.90;30.00
72940;DHT22;61094;51.154;13.570;2022-07-17T12:13:47;28.10;28.80
72940;DHT22;61094;51.154;13.570;2022-07-17T12:16:25;28.00;27.70
72940;DHT22;61094;51.154;13.570;2022-07-17T12:19:07;28.10;29.40
72940;DHT22;61094;51.154;13.570;2022-07-17T12:21:53;28.30;29.70
72940;DHT22;61094;51.154;13.570;2022-07-17T12:24:22;28.30;28.00
72940;DHT22;61094;51.154;13.570;2022-07-17T12:26:50;28.40;28.10
72940;DHT22;61094;51.154;13.570;2022-07-17T12:29:17;28.40;29.30
72940;DHT22;61094;51.154;13.570;2022-07-17T12:31:45;28.40;29.10
72940;DHT22;61094;51.154;13.570;2022-07-17T12:34:12;28.40;27.90
72940;DHT22;61094;51.154;13.570;2022-07-17T12:36:39;28.50;28.80
72940;DHT22;61094;51.154;13.570;2022-07-17T12:39:05;28.50;28.40
72940;DHT22;61094;51.154;13.570;2022-07-17T12:41:32;28.50;29.60
72940;DHT22;61094;51.154;13.570;2022-07-17T12:43:59;28.50;28.40
72940;DHT22;61094;51.154;13.570;2022-07-17T12:46:25;28.60;28.70
72940;DHT22;61094;51.154;13.570;2022-07-17T12:48:53;28.70;27.90
72940;DHT22;61094;51.154;13.570;2022-07-17T12:51:20;28.80;28.80
72940;DHT22;61094;51.154;13.570;2022-07-17T12:53:47;28.80;28.50
72940;DHT22;61094;51.154;13.570;2022-07-17T12:56:14;28.80;28.50
72940;DHT22;61094;51.154;13.570;2022-07-17T12:58:41;28.90;28.10
72940;DHT22;61094;51.154;13.570;2022-07-17T13:01:07;28.90;27.00
72940;DHT22;61094;51.154;13.570;2022-07-17T13:03:34;29.00;27.50
72940;DHT22;61094;51.154;13.570;2022-07-17T13:06:02;29.10;28.00
72940;DHT22;61094;51.154;13.570;2022-07-17T13:08:30;29.30;28.40
72940;DHT22;61094;51.154;13.570;2022-07-17T13:10:57;29.30;27.00
72940;DHT22;61094;51.154;13.570;2022-07-17T13:13:24;29.40;28.20
72940;DHT22;61094;51.154;13.570;2022-07-17T13:15:50;29.30;28.00
72940;DHT22;61094;51.154;13.570;2022-07-17T13:18:17;29.20;27.80
72940;DHT22;61094;51.154;13.570;2022-07-17T13:20:44;29.20;26.60
72940;DHT22;61094;51.154;13.570;2022-07-17T13:23:13;29.20;27.80
72940;DHT22;61094;51.154;13.570;2022-07-17T13:25:40;29.20;28.10
72940;DHT22;61094;51.154;13.570;2022-07-17T13:28:08;29.30;27.70
72940;DHT22;61094;51.154;13.570;2022-07-17T13:30:35;29.40;27.10
72940;DHT22;61094;51.154;13.570;2022-07-17T13:33:02;29.40;27.90
72940;DHT22;61094;51.154;13.570;2022-07-17T13:35:29;29.40;25.80
72940;DHT22;61094;51.154;13.570;2022-07-17T13:37:56;29.50;27.60
72940;DHT22;61094;51.154;13.570;2022-07-17T13:40:25;29.40;27.50
72940;DHT22;61094;51.154;13.570;2022-07-17T13:42:52;29.40;27.60
72940;DHT22;61094;51.154;13.570;2022-07-17T13:45:18;29.40;27.10
72940;DHT22;61094;51.154;13.570;2022-07-17T13:47:45;29.40;26.60
72940;DHT22;61094;51.154;13.570;2022-07-17T13:50:11;29.30;26.90
72940;DHT22;61094;51.154;13.570;2022-07-17T13:52:38;29.20;27.30
72940;DHT22;61094;51.154;13.570;2022-07-17T13:55:06;29.30;27.60
72940;DHT22;61094;51.154;13.570;2022-07-17T13:57:34;29.30;27.50
72940;DHT22;61094;51.154;13.570;2022-07-17T14:00:02;29.30;27.50
72940;DHT22;61094;51.154;13.570;2022-07-17T14:02:44;29.20;27.50
72940;DHT22;61094;51.154;13.570;2022-07-17T14:05:26;29.00;25.40
72940;DHT22;61094;51.154;13.570;2022-07-17T14:07:53;28.90;26.40
72940;DHT22;61094;51.154;13.570;2022-07-17T14:10:20;29.00;26.80
72940;DHT22;61094;51.154;13.570;2022-07-17T14:12:48;29.00;27.40
72940;DHT22;61094;51.154;13.570;2022-07-17T14:15:15;29.00;27.20
72940;DHT22;61094;51.154;13.570;2022-07-17T14:18:06;29.00;24.70
72940;DHT22;61094;51.154;13.570;2022-07-17T14:20:37;28.90;24.70
72940;DHT22;61094;51.154;13.570;2022-07-17T14:23:04;28.90;27.20
72940;DHT22;61094;51.154;13.570;2022-07-17T14:25:30;28.90;27.00
72940;DHT22;61094;51.154;13.570;2022-07-17T14:28:01;29.00;27.10
72940;DHT22;61094;51.154;13.570;2022-07-17T14:30:28;29.00;27.10
72940;DHT22;61094;51.154;13.570;2022-07-17T14:32:55;29.10;27.00
72940;DHT22;61094;51.154;13.570;2022-07-17T14:35:21;29.10;26.90
72940;DHT22;61094;51.154;13.570;2022-07-17T14:37:48;29.00;27.10
72940;DHT22;61094;51.154;13.570;2022-07-17T14:40:15;29.10;27.20
72940;DHT22;61094;51.154;13.570;2022-07-17T14:42:42;29.10;26.40
72940;DHT22;61094;51.154;13.570;2022-07-17T14:45:10;29.10;27.30
72940;DHT22;61094;51.154;13.570;2022-07-17T14:47:38;29.00;26.20
72940;DHT22;61094;51.154;13.570;2022-07-17T14:50:07;29.00;27.10
72940;DHT22;61094;51.154;13.570;2022-07-17T14:52:34;28.90;26.50
72940;DHT22;61094;51.154;13.570;2022-07-17T14:55:01;28.90;26.90
72940;DHT22;61094;51.154;13.570;2022-07-17T14:57:27;28.90;27.00
72940;DHT22;61094;51.154;13.570;2022-07-17T14:59:54;29.00;27.00
72940;DHT22;61094;51.154;13.570;2022-07-17T15:02:23;29.00;27.00
72940;DHT22;61094;51.154;13.570;2022-07-17T15:04:49;29.10;27.00
72940;DHT22;61094;51.154;13.570;2022-07-17T15:07:16;29.10;26.90
72940;DHT22;61094;51.154;13.570;2022-07-17T15:09:42;29.20;27.00
72940;DHT22;61094;51.154;13.570;2022-07-17T15:12:09;29.20;26.70
72940;DHT22;61094;51.154;13.570;2022-07-17T15:14:36;29.30;26.90
72940;DHT22;61094;51.154;13.570;2022-07-17T15:17:02;29.20;26.90
72940;DHT22;61094;51.154;13.570;2022-07-17T15:19:30;29.20;26.40
72940;DHT22;61094;51.154;13.570;2022-07-17T15:21:57;29.20;26.80
72940;DHT22;61094;51.154;13.570;2022-07-17T15:24:23;29.10;26.50